EDW330Z LSZH-LGZA
Flight info
| Callsign | EDW330Z |
|---|---|
| Flight time | 1h 51m |
| Altitude | 37000 |
| Route | VEBIT T53 GERSA Z50 RESIA DCT ADOSA DCT ANC DCT LATAN |
| Aircraft | A320/M-SDE3FGHIRWY/LB1 |
Departure
| Time | 2026-05-07 13:48 |
|---|---|
| Airport | Zürich Airport (LSZH) |
Arrival
| Time | 2026-05-07 15:40 |
|---|---|
| Airport | Zakynthos International Airport Dionysios Solomos (LGZA) |
| Time | Latitude | Longitude | Altitude | Speed | Heading |
|---|---|---|---|---|---|
| 2026-05-07 12:10 | 47.46139 | 8.55119 | 1394 ft | 0 kts | 65° |
| 2026-05-07 13:35 | 47.46132 | 8.55096 | 1400 ft | 4 kts | 65° |
| 2026-05-07 13:35 | 47.46125 | 8.55074 | 1398 ft | 0 kts | 66° |
| 2026-05-07 13:36 | 47.46139 | 8.55119 | 1395 ft | 0 kts | 65° |
| 2026-05-07 13:37 | 47.46139 | 8.55118 | 1401 ft | 2 kts | 65° |
| 2026-05-07 13:37 | 47.46132 | 8.55095 | 1403 ft | 2 kts | 65° |
| 2026-05-07 13:37 | 47.46124 | 8.55072 | 1398 ft | 3 kts | 74° |
| 2026-05-07 13:38 | 47.46123 | 8.55046 | 1397 ft | 3 kts | 99° |
| 2026-05-07 13:38 | 47.46129 | 8.55021 | 1398 ft | 3 kts | 132° |
| 2026-05-07 13:38 | 47.46141 | 8.55002 | 1386 ft | 3 kts | 144° |
| 2026-05-07 13:38 | 47.46152 | 8.54990 | 1387 ft | 0 kts | 149° |
| 2026-05-07 13:41 | 47.46151 | 8.54991 | 1387 ft | 1 kts | 149° |
| 2026-05-07 13:41 | 47.46124 | 8.55014 | 1400 ft | 8 kts | 152° |
| 2026-05-07 13:42 | 47.46043 | 8.55070 | 1398 ft | 15 kts | 154° |
| 2026-05-07 13:42 | 47.45962 | 8.55127 | 1397 ft | 11 kts | 155° |
| 2026-05-07 13:42 | 47.45910 | 8.55173 | 1398 ft | 7 kts | 134° |
| 2026-05-07 13:42 | 47.45894 | 8.55265 | 1398 ft | 14 kts | 97° |
| 2026-05-07 13:43 | 47.45881 | 8.55432 | 1401 ft | 16 kts | 96° |
| 2026-05-07 13:43 | 47.45870 | 8.55573 | 1406 ft | 12 kts | 97° |
| 2026-05-07 13:43 | 47.45864 | 8.55671 | 1408 ft | 8 kts | 94° |
| 2026-05-07 13:43 | 47.45858 | 8.55791 | 1408 ft | 20 kts | 95° |
| 2026-05-07 13:44 | 47.45837 | 8.56055 | 1412 ft | 29 kts | 97° |
| 2026-05-07 13:44 | 47.45816 | 8.56338 | 1419 ft | 27 kts | 96° |
| 2026-05-07 13:44 | 47.45795 | 8.56615 | 1419 ft | 27 kts | 96° |
| 2026-05-07 13:44 | 47.45778 | 8.56870 | 1422 ft | 19 kts | 96° |
| 2026-05-07 13:45 | 47.45764 | 8.56991 | 1424 ft | 6 kts | 114° |
| 2026-05-07 13:45 | 47.45747 | 8.57021 | 1425 ft | 1 kts | 139° |
| 2026-05-07 13:45 | 47.45746 | 8.57022 | 1425 ft | 0 kts | 139° |
| 2026-05-07 13:46 | 47.45744 | 8.57024 | 1425 ft | 2 kts | 142° |
| 2026-05-07 13:46 | 47.45709 | 8.57033 | 1425 ft | 9 kts | 180° |
| 2026-05-07 13:46 | 47.45664 | 8.57011 | 1425 ft | 5 kts | 258° |
| 2026-05-07 13:47 | 47.45665 | 8.56980 | 1424 ft | 0 kts | 275° |
| 2026-05-07 13:48 | 47.45671 | 8.56896 | 1423 ft | 35 kts | 276° |
| 2026-05-07 13:48 | 47.45725 | 8.56148 | 1415 ft | 108 kts | 276° |
| 2026-05-07 13:48 | 47.45823 | 8.54754 | 1450 ft | 157 kts | 279° |
| 2026-05-07 13:48 | 47.45940 | 8.53127 | 2064 ft | 163 kts | 277° |
| 2026-05-07 13:49 | 47.46080 | 8.51433 | 2803 ft | 169 kts | 277° |
| 2026-05-07 13:49 | 47.46212 | 8.49646 | 3317 ft | 184 kts | 275° |
| 2026-05-07 13:49 | 47.46147 | 8.47714 | 3676 ft | 202 kts | 249° |
| 2026-05-07 13:49 | 47.45241 | 8.45970 | 3997 ft | 228 kts | 226° |
| 2026-05-07 13:50 | 47.44081 | 8.44227 | 4536 ft | 249 kts | 228° |
| 2026-05-07 13:50 | 47.42875 | 8.42276 | 5263 ft | 263 kts | 231° |
| 2026-05-07 13:50 | 47.41718 | 8.40171 | 6334 ft | 266 kts | 233° |
| 2026-05-07 13:50 | 47.40542 | 8.38059 | 7281 ft | 269 kts | 224° |
| 2026-05-07 13:51 | 47.38944 | 8.36610 | 8181 ft | 274 kts | 201° |
| 2026-05-07 13:51 | 47.37040 | 8.36261 | 9071 ft | 282 kts | 176° |
| 2026-05-07 13:51 | 47.35128 | 8.37037 | 9959 ft | 287 kts | 163° |
| 2026-05-07 13:51 | 47.33200 | 8.38042 | 10475 ft | 304 kts | 163° |
| 2026-05-07 13:52 | 47.31157 | 8.39231 | 10812 ft | 326 kts | 153° |
| 2026-05-07 13:52 | 47.29385 | 8.41387 | 11450 ft | 339 kts | 131° |
| 2026-05-07 13:52 | 47.27990 | 8.44224 | 12209 ft | 344 kts | 127° |
| 2026-05-07 13:52 | 47.26625 | 8.47132 | 12986 ft | 347 kts | 127° |
| 2026-05-07 13:53 | 47.25254 | 8.50085 | 13761 ft | 351 kts | 126° |
| 2026-05-07 13:53 | 47.23873 | 8.53063 | 14428 ft | 354 kts | 126° |
| 2026-05-07 13:53 | 47.22475 | 8.56072 | 15080 ft | 358 kts | 126° |
| 2026-05-07 13:53 | 47.21058 | 8.59110 | 15712 ft | 362 kts | 126° |
| 2026-05-07 13:54 | 47.19619 | 8.62176 | 15973 ft | 364 kts | 126° |
| 2026-05-07 13:54 | 47.18167 | 8.65255 | 16524 ft | 368 kts | 126° |
| 2026-05-07 13:54 | 47.16702 | 8.68353 | 17190 ft | 370 kts | 126° |
| 2026-05-07 13:54 | 47.15216 | 8.71414 | 17779 ft | 375 kts | 127° |
| 2026-05-07 13:55 | 47.13650 | 8.74564 | 18403 ft | 379 kts | 128° |
| 2026-05-07 13:55 | 47.12097 | 8.77658 | 18944 ft | 383 kts | 128° |
| 2026-05-07 13:55 | 47.10510 | 8.80818 | 19509 ft | 386 kts | 128° |
| 2026-05-07 13:55 | 47.08912 | 8.84003 | 20071 ft | 389 kts | 128° |
| 2026-05-07 13:56 | 47.07303 | 8.87222 | 20630 ft | 393 kts | 127° |
| 2026-05-07 13:56 | 47.05682 | 8.90471 | 21189 ft | 396 kts | 127° |
| 2026-05-07 13:56 | 47.04053 | 8.93741 | 21739 ft | 399 kts | 127° |
| 2026-05-07 13:56 | 47.02410 | 8.97038 | 22284 ft | 402 kts | 127° |
| 2026-05-07 13:57 | 47.00750 | 9.00359 | 22850 ft | 405 kts | 127° |
| 2026-05-07 13:57 | 46.99079 | 9.03698 | 23386 ft | 408 kts | 128° |
| 2026-05-07 13:57 | 46.97391 | 9.07065 | 23851 ft | 412 kts | 127° |
| 2026-05-07 13:57 | 46.95691 | 9.10454 | 24268 ft | 415 kts | 127° |
| 2026-05-07 13:58 | 46.93980 | 9.13863 | 24729 ft | 417 kts | 127° |
| 2026-05-07 13:58 | 46.92255 | 9.17292 | 25129 ft | 419 kts | 128° |
| 2026-05-07 13:58 | 46.90517 | 9.20737 | 25567 ft | 422 kts | 128° |
| 2026-05-07 13:58 | 46.88771 | 9.24193 | 25998 ft | 424 kts | 128° |
| 2026-05-07 13:59 | 46.87016 | 9.27667 | 26414 ft | 426 kts | 128° |
| 2026-05-07 13:59 | 46.85244 | 9.31164 | 26804 ft | 428 kts | 128° |
| 2026-05-07 13:59 | 46.83466 | 9.34667 | 27198 ft | 430 kts | 128° |
| 2026-05-07 13:59 | 46.81682 | 9.38182 | 27582 ft | 432 kts | 128° |
| 2026-05-07 14:00 | 46.79888 | 9.41717 | 27953 ft | 435 kts | 128° |
| 2026-05-07 14:00 | 46.78080 | 9.45282 | 28289 ft | 438 kts | 128° |
| 2026-05-07 14:00 | 46.76257 | 9.48876 | 28617 ft | 442 kts | 128° |
| 2026-05-07 14:00 | 46.74423 | 9.52478 | 28974 ft | 445 kts | 128° |
| 2026-05-07 14:01 | 46.72566 | 9.56115 | 29317 ft | 447 kts | 128° |
| 2026-05-07 14:01 | 46.70702 | 9.59752 | 29673 ft | 449 kts | 128° |
| 2026-05-07 14:01 | 46.68828 | 9.63410 | 30019 ft | 452 kts | 128° |
| 2026-05-07 14:01 | 46.66945 | 9.67096 | 30292 ft | 454 kts | 128° |
| 2026-05-07 14:02 | 46.65054 | 9.70783 | 30545 ft | 456 kts | 129° |
| 2026-05-07 14:02 | 46.63154 | 9.74484 | 30787 ft | 458 kts | 129° |
| 2026-05-07 14:02 | 46.61240 | 9.78207 | 30993 ft | 462 kts | 129° |
| 2026-05-07 14:02 | 46.59312 | 9.81967 | 31204 ft | 465 kts | 129° |
| 2026-05-07 14:03 | 46.57377 | 9.85752 | 31420 ft | 467 kts | 129° |
| 2026-05-07 14:03 | 46.55440 | 9.89550 | 31697 ft | 468 kts | 129° |
| 2026-05-07 14:03 | 46.53500 | 9.93347 | 31984 ft | 469 kts | 129° |
| 2026-05-07 14:03 | 46.51566 | 9.97107 | 32184 ft | 471 kts | 130° |
| 2026-05-07 14:04 | 46.49599 | 10.00909 | 32389 ft | 472 kts | 130° |
| 2026-05-07 14:04 | 46.47477 | 10.04531 | 32644 ft | 468 kts | 139° |
| 2026-05-07 14:04 | 46.45060 | 10.07662 | 32933 ft | 465 kts | 144° |
| 2026-05-07 14:04 | 46.42568 | 10.10645 | 33246 ft | 465 kts | 145° |
| 2026-05-07 14:05 | 46.40071 | 10.13637 | 33509 ft | 465 kts | 145° |
| 2026-05-07 14:05 | 46.37576 | 10.16626 | 33807 ft | 465 kts | 145° |
| 2026-05-07 14:05 | 46.35081 | 10.19613 | 34084 ft | 466 kts | 145° |
| 2026-05-07 14:05 | 46.32581 | 10.22603 | 34349 ft | 466 kts | 145° |
| 2026-05-07 14:06 | 46.30086 | 10.25586 | 34608 ft | 465 kts | 145° |
| 2026-05-07 14:06 | 46.27590 | 10.28563 | 34876 ft | 465 kts | 145° |
| 2026-05-07 14:06 | 46.25096 | 10.31529 | 35175 ft | 464 kts | 145° |
| 2026-05-07 14:06 | 46.22609 | 10.34481 | 35438 ft | 463 kts | 145° |
| 2026-05-07 14:07 | 46.20120 | 10.37435 | 35691 ft | 463 kts | 145° |
| 2026-05-07 14:07 | 46.17638 | 10.40381 | 35961 ft | 462 kts | 145° |
| 2026-05-07 14:07 | 46.15155 | 10.43324 | 36210 ft | 461 kts | 146° |
| 2026-05-07 14:07 | 46.12679 | 10.46257 | 36455 ft | 460 kts | 145° |
| 2026-05-07 14:08 | 46.10203 | 10.49190 | 36689 ft | 459 kts | 145° |
| 2026-05-07 14:08 | 46.07765 | 10.52070 | 36892 ft | 460 kts | 146° |
| 2026-05-07 14:08 | 46.05294 | 10.54984 | 36965 ft | 459 kts | 146° |
| 2026-05-07 14:09 | 46.00365 | 10.60783 | 36958 ft | 457 kts | 146° |
| 2026-05-07 14:09 | 45.95446 | 10.66559 | 36955 ft | 456 kts | 146° |
| 2026-05-07 14:10 | 45.90528 | 10.72311 | 36963 ft | 456 kts | 146° |
| 2026-05-07 14:10 | 45.85611 | 10.78063 | 36926 ft | 456 kts | 147° |
| 2026-05-07 14:11 | 45.80691 | 10.83804 | 36941 ft | 457 kts | 146° |
| 2026-05-07 14:11 | 45.75752 | 10.89547 | 36935 ft | 457 kts | 146° |
| 2026-05-07 14:12 | 45.70839 | 10.95238 | 36942 ft | 458 kts | 147° |
| 2026-05-07 14:12 | 45.65855 | 11.00997 | 36956 ft | 458 kts | 147° |
| 2026-05-07 14:13 | 45.60976 | 11.06766 | 36943 ft | 459 kts | 145° |
| 2026-05-07 14:13 | 45.56188 | 11.12794 | 36960 ft | 459 kts | 144° |
| 2026-05-07 14:14 | 45.51410 | 11.18848 | 36968 ft | 459 kts | 144° |
| 2026-05-07 14:14 | 45.46603 | 11.24826 | 36965 ft | 458 kts | 145° |
| 2026-05-07 14:15 | 45.41781 | 11.30757 | 36957 ft | 458 kts | 145° |
| 2026-05-07 14:15 | 45.36962 | 11.36683 | 36945 ft | 458 kts | 145° |
| 2026-05-07 14:16 | 45.32172 | 11.42560 | 36953 ft | 458 kts | 145° |
| 2026-05-07 14:16 | 45.27346 | 11.48476 | 36958 ft | 458 kts | 145° |
| 2026-05-07 14:17 | 45.22508 | 11.54386 | 36961 ft | 458 kts | 145° |
| 2026-05-07 14:17 | 45.18460 | 11.59329 | 36964 ft | 458 kts | 145° |
| 2026-05-07 14:18 | 45.13661 | 11.65179 | 36953 ft | 458 kts | 146° |
| 2026-05-07 14:18 | 45.08828 | 11.71053 | 36967 ft | 457 kts | 146° |
| 2026-05-07 14:19 | 45.03992 | 11.76921 | 36977 ft | 457 kts | 146° |
| 2026-05-07 14:19 | 44.99164 | 11.82764 | 36980 ft | 457 kts | 146° |
| 2026-05-07 14:20 | 44.94333 | 11.88592 | 36966 ft | 457 kts | 146° |
| 2026-05-07 14:20 | 44.89502 | 11.94408 | 36972 ft | 456 kts | 146° |
| 2026-05-07 14:21 | 44.84677 | 12.00211 | 36983 ft | 456 kts | 146° |
| 2026-05-07 14:21 | 44.79849 | 12.05999 | 36987 ft | 455 kts | 146° |
| 2026-05-07 14:22 | 44.75018 | 12.11771 | 36992 ft | 455 kts | 146° |
| 2026-05-07 14:22 | 44.70191 | 12.17528 | 36983 ft | 455 kts | 146° |
| 2026-05-07 14:23 | 44.65357 | 12.23282 | 36989 ft | 455 kts | 146° |
| 2026-05-07 14:23 | 44.60530 | 12.29007 | 37000 ft | 454 kts | 146° |
| 2026-05-07 14:24 | 44.55711 | 12.34720 | 37010 ft | 454 kts | 146° |
| 2026-05-07 14:24 | 44.50888 | 12.40425 | 37003 ft | 453 kts | 146° |
| 2026-05-07 14:25 | 44.46098 | 12.46078 | 37013 ft | 453 kts | 146° |
| 2026-05-07 14:25 | 44.41278 | 12.51752 | 37009 ft | 452 kts | 147° |
| 2026-05-07 14:26 | 44.36461 | 12.57415 | 37010 ft | 452 kts | 147° |
| 2026-05-07 14:26 | 44.31637 | 12.63067 | 37015 ft | 452 kts | 147° |
| 2026-05-07 14:27 | 44.26817 | 12.68702 | 36989 ft | 452 kts | 147° |
| 2026-05-07 14:27 | 44.22002 | 12.74325 | 37004 ft | 451 kts | 147° |
| 2026-05-07 14:28 | 44.17176 | 12.79933 | 36999 ft | 451 kts | 147° |
| 2026-05-07 14:28 | 44.12360 | 12.85527 | 37008 ft | 450 kts | 147° |
| 2026-05-07 14:29 | 44.07550 | 12.91106 | 37009 ft | 450 kts | 147° |
| 2026-05-07 14:29 | 44.02738 | 12.96675 | 37004 ft | 450 kts | 147° |
| 2026-05-07 14:30 | 43.97929 | 13.02237 | 37000 ft | 450 kts | 147° |
| 2026-05-07 14:30 | 43.93120 | 13.07772 | 36998 ft | 449 kts | 147° |
| 2026-05-07 14:31 | 43.88297 | 13.13295 | 36997 ft | 449 kts | 147° |
| 2026-05-07 14:31 | 43.83482 | 13.18808 | 36965 ft | 449 kts | 147° |
| 2026-05-07 14:32 | 43.78662 | 13.24332 | 36984 ft | 450 kts | 147° |
| 2026-05-07 14:32 | 43.73840 | 13.29844 | 36988 ft | 450 kts | 147° |
| 2026-05-07 14:33 | 43.69010 | 13.35342 | 36988 ft | 450 kts | 147° |
| 2026-05-07 14:33 | 43.64212 | 13.40797 | 36990 ft | 450 kts | 147° |
| 2026-05-07 14:34 | 43.59384 | 13.46274 | 36969 ft | 450 kts | 146° |
| 2026-05-07 14:34 | 43.54897 | 13.52425 | 36961 ft | 456 kts | 141° |
| 2026-05-07 14:35 | 43.50483 | 13.58690 | 36974 ft | 456 kts | 141° |
| 2026-05-07 14:35 | 43.46057 | 13.64946 | 36980 ft | 456 kts | 141° |
| 2026-05-07 14:36 | 43.41630 | 13.71203 | 36986 ft | 456 kts | 141° |
| 2026-05-07 14:36 | 43.37199 | 13.77450 | 36969 ft | 457 kts | 141° |
| 2026-05-07 14:37 | 43.32752 | 13.83700 | 36982 ft | 458 kts | 141° |
| 2026-05-07 14:37 | 43.26084 | 13.93036 | 36981 ft | 459 kts | 141° |
| 2026-05-07 14:38 | 43.21610 | 13.99300 | 36987 ft | 460 kts | 141° |
| 2026-05-07 14:38 | 43.17127 | 14.05555 | 36989 ft | 460 kts | 141° |
| 2026-05-07 14:39 | 43.12625 | 14.11812 | 36973 ft | 461 kts | 141° |
| 2026-05-07 14:39 | 43.08113 | 14.18056 | 36990 ft | 462 kts | 141° |
| 2026-05-07 14:40 | 43.03594 | 14.24315 | 36976 ft | 462 kts | 141° |
| 2026-05-07 14:40 | 42.99075 | 14.30579 | 36991 ft | 462 kts | 141° |
| 2026-05-07 14:41 | 42.94558 | 14.36823 | 37000 ft | 462 kts | 141° |
| 2026-05-07 14:41 | 42.90034 | 14.43047 | 36971 ft | 462 kts | 141° |
| 2026-05-07 14:42 | 42.85490 | 14.49274 | 36983 ft | 463 kts | 141° |
| 2026-05-07 14:42 | 42.80954 | 14.55497 | 36988 ft | 463 kts | 141° |
| 2026-05-07 14:43 | 42.76411 | 14.61713 | 36996 ft | 463 kts | 142° |
| 2026-05-07 14:43 | 42.71847 | 14.67912 | 36996 ft | 463 kts | 142° |
| 2026-05-07 14:44 | 42.67316 | 14.74076 | 36980 ft | 464 kts | 142° |
| 2026-05-07 14:44 | 42.62746 | 14.80296 | 36987 ft | 465 kts | 142° |
| 2026-05-07 14:45 | 42.58168 | 14.86503 | 36992 ft | 466 kts | 142° |
| 2026-05-07 14:45 | 42.53573 | 14.92708 | 36988 ft | 466 kts | 142° |
| 2026-05-07 14:46 | 42.48972 | 14.98908 | 36981 ft | 467 kts | 142° |
| 2026-05-07 14:46 | 42.44366 | 15.05115 | 36989 ft | 467 kts | 142° |
| 2026-05-07 14:47 | 42.39750 | 15.11317 | 36970 ft | 468 kts | 143° |
| 2026-05-07 14:47 | 42.35111 | 15.17522 | 36981 ft | 470 kts | 143° |
| 2026-05-07 14:48 | 42.30484 | 15.23702 | 36991 ft | 471 kts | 143° |
| 2026-05-07 14:48 | 42.25828 | 15.29928 | 36981 ft | 471 kts | 142° |
| 2026-05-07 14:49 | 42.21166 | 15.36150 | 36982 ft | 471 kts | 143° |
| 2026-05-07 14:49 | 42.16490 | 15.42356 | 36978 ft | 473 kts | 143° |
| 2026-05-07 14:50 | 42.11774 | 15.48592 | 36986 ft | 475 kts | 143° |
| 2026-05-07 14:50 | 42.07058 | 15.54828 | 36994 ft | 476 kts | 143° |
| 2026-05-07 14:51 | 42.02363 | 15.61034 | 36998 ft | 476 kts | 143° |
| 2026-05-07 14:51 | 41.97626 | 15.67265 | 36995 ft | 476 kts | 143° |
| 2026-05-07 14:52 | 41.92883 | 15.73506 | 36967 ft | 477 kts | 144° |
| 2026-05-07 14:52 | 41.88128 | 15.79748 | 36973 ft | 479 kts | 144° |
| 2026-05-07 14:53 | 41.83344 | 15.86003 | 36983 ft | 481 kts | 144° |
| 2026-05-07 14:53 | 41.78545 | 15.92246 | 36989 ft | 482 kts | 144° |
| 2026-05-07 14:54 | 41.73734 | 15.98508 | 36997 ft | 482 kts | 144° |
| 2026-05-07 14:54 | 41.68920 | 16.04773 | 36992 ft | 482 kts | 144° |
| 2026-05-07 14:55 | 41.64093 | 16.11029 | 37003 ft | 483 kts | 144° |
| 2026-05-07 14:55 | 41.59270 | 16.17283 | 37007 ft | 484 kts | 144° |
| 2026-05-07 14:56 | 41.54436 | 16.23535 | 37017 ft | 484 kts | 144° |
| 2026-05-07 14:56 | 41.49591 | 16.29771 | 37019 ft | 484 kts | 144° |
| 2026-05-07 14:57 | 41.44741 | 16.35997 | 37014 ft | 484 kts | 144° |
| 2026-05-07 14:57 | 41.39884 | 16.42214 | 36971 ft | 485 kts | 144° |
| 2026-05-07 14:58 | 41.35009 | 16.48447 | 36978 ft | 487 kts | 144° |
| 2026-05-07 14:58 | 41.30144 | 16.54660 | 36988 ft | 489 kts | 144° |
| 2026-05-07 14:59 | 41.25236 | 16.60927 | 36988 ft | 489 kts | 144° |
| 2026-05-07 14:59 | 41.20316 | 16.67183 | 36992 ft | 490 kts | 145° |
| 2026-05-07 15:00 | 41.15381 | 16.73440 | 36984 ft | 494 kts | 146° |
| 2026-05-07 15:00 | 41.10384 | 16.79754 | 36985 ft | 497 kts | 146° |
| 2026-05-07 15:01 | 41.05372 | 16.86085 | 36990 ft | 498 kts | 146° |
| 2026-05-07 15:01 | 41.00356 | 16.92415 | 37025 ft | 498 kts | 146° |
| 2026-05-07 15:02 | 40.95326 | 16.98751 | 37032 ft | 499 kts | 146° |
| 2026-05-07 15:02 | 40.90291 | 17.05069 | 36988 ft | 500 kts | 146° |
| 2026-05-07 15:03 | 40.85204 | 17.11425 | 37019 ft | 505 kts | 146° |
| 2026-05-07 15:03 | 40.80092 | 17.17810 | 37026 ft | 506 kts | 146° |
| 2026-05-07 15:04 | 40.74967 | 17.24200 | 37022 ft | 507 kts | 146° |
| 2026-05-07 15:04 | 40.70707 | 17.29496 | 37042 ft | 507 kts | 146° |
| 2026-05-07 15:05 | 40.65572 | 17.35865 | 37016 ft | 507 kts | 147° |
| 2026-05-07 15:05 | 40.59602 | 17.43265 | 37027 ft | 508 kts | 147° |
| 2026-05-07 15:06 | 40.55281 | 17.48597 | 37024 ft | 509 kts | 147° |
| 2026-05-07 15:06 | 40.50109 | 17.54965 | 37033 ft | 509 kts | 147° |
| 2026-05-07 15:07 | 40.44940 | 17.61322 | 37039 ft | 510 kts | 147° |
| 2026-05-07 15:07 | 40.39759 | 17.67696 | 37000 ft | 510 kts | 147° |
| 2026-05-07 15:08 | 40.34608 | 17.74012 | 37016 ft | 511 kts | 147° |
| 2026-05-07 15:08 | 40.29409 | 17.80370 | 37018 ft | 512 kts | 146° |
| 2026-05-07 15:09 | 40.24191 | 17.86718 | 37029 ft | 512 kts | 147° |
| 2026-05-07 15:09 | 40.18966 | 17.93062 | 37038 ft | 513 kts | 147° |
| 2026-05-07 15:10 | 40.13737 | 17.99421 | 37007 ft | 513 kts | 147° |
| 2026-05-07 15:10 | 40.08503 | 18.05758 | 37032 ft | 513 kts | 147° |
| 2026-05-07 15:11 | 40.03274 | 18.12082 | 37045 ft | 512 kts | 147° |
| 2026-05-07 15:11 | 39.98045 | 18.18391 | 37051 ft | 512 kts | 147° |
| 2026-05-07 15:12 | 39.92848 | 18.24645 | 37053 ft | 511 kts | 147° |
| 2026-05-07 15:12 | 39.87618 | 18.30918 | 37034 ft | 511 kts | 147° |
| 2026-05-07 15:13 | 39.82385 | 18.37197 | 37049 ft | 511 kts | 147° |
| 2026-05-07 15:13 | 39.77155 | 18.43448 | 37049 ft | 511 kts | 146° |
| 2026-05-07 15:14 | 39.71914 | 18.49706 | 37038 ft | 512 kts | 146° |
| 2026-05-07 15:14 | 39.66662 | 18.55961 | 37039 ft | 512 kts | 146° |
| 2026-05-07 15:15 | 39.61436 | 18.62165 | 37040 ft | 512 kts | 147° |
| 2026-05-07 15:15 | 39.56178 | 18.68398 | 37031 ft | 512 kts | 146° |
| 2026-05-07 15:16 | 39.50927 | 18.74622 | 37051 ft | 512 kts | 146° |
| 2026-05-07 15:16 | 39.45663 | 18.80830 | 37040 ft | 512 kts | 146° |
| 2026-05-07 15:17 | 39.40389 | 18.87032 | 37038 ft | 513 kts | 146° |
| 2026-05-07 15:17 | 39.35109 | 18.93221 | 37037 ft | 513 kts | 146° |
| 2026-05-07 15:18 | 39.29809 | 18.99389 | 37041 ft | 509 kts | 149° |
| 2026-05-07 15:18 | 39.24089 | 19.04583 | 37056 ft | 501 kts | 155° |
| 2026-05-07 15:19 | 39.18311 | 19.09593 | 37062 ft | 500 kts | 155° |
| 2026-05-07 15:19 | 39.12564 | 19.14556 | 37055 ft | 500 kts | 155° |
| 2026-05-07 15:20 | 39.06782 | 19.19552 | 37051 ft | 501 kts | 155° |
| 2026-05-07 15:20 | 39.00999 | 19.24551 | 37048 ft | 501 kts | 155° |
| 2026-05-07 15:21 | 38.95202 | 19.29545 | 37053 ft | 501 kts | 155° |
| 2026-05-07 15:21 | 38.89400 | 19.34533 | 37047 ft | 502 kts | 155° |
| 2026-05-07 15:22 | 38.86483 | 19.37036 | 36409 ft | 507 kts | 155° |
| 2026-05-07 15:22 | 38.83501 | 19.39582 | 35253 ft | 518 kts | 155° |
| 2026-05-07 15:22 | 38.80509 | 19.42143 | 34634 ft | 514 kts | 154° |
| 2026-05-07 15:22 | 38.77554 | 19.44684 | 34125 ft | 508 kts | 154° |
| 2026-05-07 15:23 | 38.74629 | 19.47200 | 33376 ft | 507 kts | 154° |
| 2026-05-07 15:23 | 38.71721 | 19.49695 | 32832 ft | 501 kts | 154° |
| 2026-05-07 15:23 | 38.68833 | 19.52166 | 32302 ft | 495 kts | 154° |
| 2026-05-07 15:23 | 38.65974 | 19.54604 | 31608 ft | 494 kts | 154° |
| 2026-05-07 15:24 | 38.63132 | 19.57017 | 31235 ft | 486 kts | 154° |
| 2026-05-07 15:24 | 38.60330 | 19.59395 | 30705 ft | 482 kts | 154° |
| 2026-05-07 15:24 | 38.57545 | 19.61757 | 30197 ft | 478 kts | 154° |
| 2026-05-07 15:24 | 38.54788 | 19.64098 | 29576 ft | 475 kts | 154° |
| 2026-05-07 15:25 | 38.52051 | 19.66425 | 29036 ft | 470 kts | 154° |
| 2026-05-07 15:25 | 38.49344 | 19.68727 | 28526 ft | 465 kts | 154° |
| 2026-05-07 15:25 | 38.46663 | 19.71002 | 28028 ft | 459 kts | 153° |
| 2026-05-07 15:25 | 38.44025 | 19.73235 | 27348 ft | 452 kts | 153° |
| 2026-05-07 15:26 | 38.41429 | 19.75432 | 26762 ft | 444 kts | 153° |
| 2026-05-07 15:26 | 38.38907 | 19.77558 | 26180 ft | 436 kts | 153° |
| 2026-05-07 15:26 | 38.36370 | 19.79692 | 25659 ft | 427 kts | 153° |
| 2026-05-07 15:26 | 38.33909 | 19.81767 | 25138 ft | 420 kts | 152° |
| 2026-05-07 15:27 | 38.31494 | 19.83804 | 24608 ft | 413 kts | 152° |
| 2026-05-07 15:27 | 38.29119 | 19.85807 | 24079 ft | 406 kts | 152° |
| 2026-05-07 15:27 | 38.26781 | 19.87774 | 23545 ft | 400 kts | 151° |
| 2026-05-07 15:27 | 38.24513 | 19.89679 | 22993 ft | 392 kts | 151° |
| 2026-05-07 15:28 | 38.22264 | 19.91583 | 22476 ft | 385 kts | 151° |
| 2026-05-07 15:28 | 38.20037 | 19.93479 | 21941 ft | 385 kts | 151° |
| 2026-05-07 15:28 | 38.17805 | 19.95373 | 21411 ft | 385 kts | 151° |
| 2026-05-07 15:28 | 38.15575 | 19.97258 | 20886 ft | 385 kts | 151° |
| 2026-05-07 15:29 | 38.13344 | 19.99137 | 20370 ft | 385 kts | 151° |
| 2026-05-07 15:29 | 38.11112 | 20.01007 | 19866 ft | 384 kts | 151° |
| 2026-05-07 15:29 | 38.08886 | 20.02867 | 19367 ft | 383 kts | 151° |
| 2026-05-07 15:29 | 38.06661 | 20.04720 | 18879 ft | 382 kts | 151° |
| 2026-05-07 15:30 | 38.04439 | 20.06563 | 18397 ft | 381 kts | 151° |
| 2026-05-07 15:30 | 38.02223 | 20.08394 | 17850 ft | 380 kts | 151° |
| 2026-05-07 15:30 | 38.00159 | 20.10494 | 17298 ft | 385 kts | 135° |
| 2026-05-07 15:30 | 37.98722 | 20.13366 | 16762 ft | 391 kts | 114° |
| 2026-05-07 15:31 | 37.98102 | 20.16727 | 16221 ft | 393 kts | 97° |
| 2026-05-07 15:31 | 37.97905 | 20.20174 | 15774 ft | 390 kts | 95° |
| 2026-05-07 15:31 | 37.97749 | 20.23582 | 15334 ft | 386 kts | 95° |
| 2026-05-07 15:31 | 37.97608 | 20.26968 | 14906 ft | 383 kts | 95° |
| 2026-05-07 15:32 | 37.97477 | 20.30331 | 14479 ft | 381 kts | 95° |
| 2026-05-07 15:32 | 37.97357 | 20.33672 | 14059 ft | 378 kts | 95° |
| 2026-05-07 15:32 | 37.97249 | 20.36990 | 13614 ft | 375 kts | 95° |
| 2026-05-07 15:32 | 37.97148 | 20.40282 | 13141 ft | 372 kts | 95° |
| 2026-05-07 15:33 | 37.97053 | 20.43548 | 12692 ft | 369 kts | 95° |
| 2026-05-07 15:33 | 37.96965 | 20.46778 | 12240 ft | 365 kts | 95° |
| 2026-05-07 15:33 | 37.96878 | 20.49972 | 11787 ft | 362 kts | 95° |
| 2026-05-07 15:33 | 37.96791 | 20.53106 | 11349 ft | 358 kts | 95° |
| 2026-05-07 15:34 | 37.96712 | 20.56241 | 10925 ft | 354 kts | 95° |
| 2026-05-07 15:34 | 37.96642 | 20.59344 | 10492 ft | 350 kts | 95° |
| 2026-05-07 15:34 | 37.96579 | 20.62461 | 9797 ft | 347 kts | 95° |
| 2026-05-07 15:34 | 37.96525 | 20.65435 | 9049 ft | 337 kts | 95° |
| 2026-05-07 15:35 | 37.96474 | 20.68368 | 8296 ft | 329 kts | 95° |
| 2026-05-07 15:35 | 37.96424 | 20.71264 | 7555 ft | 320 kts | 95° |
| 2026-05-07 15:35 | 37.96375 | 20.74017 | 6846 ft | 313 kts | 95° |
| 2026-05-07 15:35 | 37.96138 | 20.76695 | 6114 ft | 299 kts | 111° |
| 2026-05-07 15:36 | 37.95141 | 20.78909 | 5367 ft | 285 kts | 136° |
| 2026-05-07 15:36 | 37.93541 | 20.80269 | 4624 ft | 275 kts | 159° |
| 2026-05-07 15:36 | 37.91791 | 20.81166 | 3875 ft | 269 kts | 156° |
| 2026-05-07 15:36 | 37.90132 | 20.82164 | 3088 ft | 258 kts | 154° |
| 2026-05-07 15:37 | 37.88569 | 20.83184 | 2279 ft | 246 kts | 153° |
| 2026-05-07 15:37 | 37.87082 | 20.84046 | 1937 ft | 225 kts | 161° |
| 2026-05-07 15:37 | 37.85631 | 20.84567 | 1945 ft | 209 kts | 167° |
| 2026-05-07 15:37 | 37.84257 | 20.84995 | 1843 ft | 199 kts | 165° |
| 2026-05-07 15:38 | 37.82931 | 20.85456 | 1575 ft | 197 kts | 165° |
| 2026-05-07 15:38 | 37.81629 | 20.85911 | 1221 ft | 190 kts | 163° |
| 2026-05-07 15:38 | 37.80440 | 20.86356 | 1112 ft | 166 kts | 162° |
| 2026-05-07 15:38 | 37.79433 | 20.86793 | 1051 ft | 144 kts | 161° |
| 2026-05-07 15:39 | 37.78497 | 20.87150 | 825 ft | 138 kts | 163° |
| 2026-05-07 15:39 | 37.77585 | 20.87505 | 518 ft | 136 kts | 163° |
| 2026-05-07 15:39 | 37.76681 | 20.87836 | 253 ft | 134 kts | 163° |
| 2026-05-07 15:39 | 37.75797 | 20.88161 | 43 ft | 130 kts | 163° |
| 2026-05-07 15:40 | 37.75018 | 20.88454 | 18 ft | 96 kts | 163° |
| 2026-05-07 15:40 | 37.74652 | 20.88596 | 21 ft | 15 kts | 145° |
| 2026-05-07 15:40 | 37.74606 | 20.88626 | 21 ft | 2 kts | 249° |
| 2026-05-07 15:40 | 37.74625 | 20.88602 | 22 ft | 9 kts | 325° |
| 2026-05-07 15:41 | 37.74696 | 20.88576 | 21 ft | 11 kts | 342° |
| 2026-05-07 15:41 | 37.74770 | 20.88544 | 21 ft | 16 kts | 345° |
| 2026-05-07 15:41 | 37.74919 | 20.88490 | 18 ft | 25 kts | 343° |
| 2026-05-07 15:41 | 37.75046 | 20.88475 | 19 ft | 15 kts | 29° |
| 2026-05-07 15:42 | 37.75125 | 20.88525 | 20 ft | 12 kts | 3° |
| 2026-05-07 15:42 | 37.75201 | 20.88505 | 20 ft | 11 kts | 343° |
| 2026-05-07 15:42 | 37.75269 | 20.88480 | 20 ft | 10 kts | 343° |
| 2026-05-07 15:42 | 37.75333 | 20.88457 | 20 ft | 8 kts | 348° |
| 2026-05-07 15:43 | 37.75361 | 20.88500 | 20 ft | 6 kts | 75° |
| 2026-05-07 15:43 | 37.75369 | 20.88537 | 20 ft | 0 kts | 73° |